sensor_id;sensor_type;location;lat;lon;timestamp;temperature;humidity
25024;DHT22;13033;50.936;5.334;2023-02-28T00:01:32;1.70;99.90
25024;DHT22;13033;50.936;5.334;2023-02-28T00:03:57;1.60;99.90
25024;DHT22;13033;50.936;5.334;2023-02-28T00:06:23;1.50;99.90
25024;DHT22;13033;50.936;5.334;2023-02-28T00:08:49;1.50;99.90
25024;DHT22;13033;50.936;5.334;2023-02-28T00:11:16;1.40;99.90
25024;DHT22;13033;50.936;5.334;2023-02-28T00:13:44;1.40;99.90
25024;DHT22;13033;50.936;5.334;2023-02-28T00:16:19;1.40;99.90
25024;DHT22;13033;50.936;5.334;2023-02-28T00:18:45;1.50;99.90
25024;DHT22;13033;50.936;5.334;2023-02-28T00:21:12;1.70;99.90
25024;DHT22;13033;50.936;5.334;2023-02-28T00:23:38;1.50;99.90
25024;DHT22;13033;50.936;5.334;2023-02-28T00:26:04;1.40;99.90
25024;DHT22;13033;50.936;5.334;2023-02-28T00:28:30;1.50;99.90
25024;DHT22;13033;50.936;5.334;2023-02-28T00:30:56;1.40;99.90
25024;DHT22;13033;50.936;5.334;2023-02-28T00:33:22;1.40;99.90
25024;DHT22;13033;50.936;5.334;2023-02-28T00:35:48;1.50;99.90
25024;DHT22;13033;50.936;5.334;2023-02-28T00:38:15;1.50;99.90
25024;DHT22;13033;50.936;5.334;2023-02-28T00:40:41;1.40;99.90
25024;DHT22;13033;50.936;5.334;2023-02-28T00:43:07;1.50;99.90
25024;DHT22;13033;50.936;5.334;2023-02-28T00:45:33;1.40;99.90
25024;DHT22;13033;50.936;5.334;2023-02-28T00:47:58;1.40;99.90
25024;DHT22;13033;50.936;5.334;2023-02-28T00:50:24;1.30;99.90
25024;DHT22;13033;50.936;5.334;2023-02-28T00:52:50;1.20;99.90
25024;DHT22;13033;50.936;5.334;2023-02-28T00:55:16;1.30;99.90
25024;DHT22;13033;50.936;5.334;2023-02-28T00:57:41;1.20;99.90
25024;DHT22;13033;50.936;5.334;2023-02-28T01:00:07;1.10;99.90
25024;DHT22;13033;50.936;5.334;2023-02-28T01:02:33;1.10;99.90
25024;DHT22;13033;50.936;5.334;2023-02-28T01:04:59;1.20;99.90
25024;DHT22;13033;50.936;5.334;2023-02-28T01:07:25;1.10;99.90
25024;DHT22;13033;50.936;5.334;2023-02-28T01:09:50;1.10;99.90
25024;DHT22;13033;50.936;5.334;2023-02-28T01:12:16;1.10;99.90
25024;DHT22;13033;50.936;5.334;2023-02-28T01:14:42;1.10;99.90
25024;DHT22;13033;50.936;5.334;2023-02-28T01:17:08;1.10;99.90
25024;DHT22;13033;50.936;5.334;2023-02-28T01:19:34;0.90;99.90
25024;DHT22;13033;50.936;5.334;2023-02-28T01:22:02;1.00;99.90
25024;DHT22;13033;50.936;5.334;2023-02-28T01:24:28;1.00;99.90
25024;DHT22;13033;50.936;5.334;2023-02-28T01:26:53;0.90;99.90
25024;DHT22;13033;50.936;5.334;2023-02-28T01:29:19;1.00;99.90
25024;DHT22;13033;50.936;5.334;2023-02-28T01:31:44;1.00;99.90
25024;DHT22;13033;50.936;5.334;2023-02-28T01:34:10;0.90;99.90
25024;DHT22;13033;50.936;5.334;2023-02-28T01:36:36;0.90;99.90
25024;DHT22;13033;50.936;5.334;2023-02-28T01:39:02;0.90;99.90
25024;DHT22;13033;50.936;5.334;2023-02-28T01:41:33;0.90;99.90
25024;DHT22;13033;50.936;5.334;2023-02-28T01:44:01;0.80;99.90
25024;DHT22;13033;50.936;5.334;2023-02-28T01:46:30;0.90;99.90
25024;DHT22;13033;50.936;5.334;2023-02-28T01:49:09;0.90;99.90
25024;DHT22;13033;50.936;5.334;2023-02-28T01:51:39;0.90;99.90
25024;DHT22;13033;50.936;5.334;2023-02-28T01:54:10;0.80;99.90
25024;DHT22;13033;50.936;5.334;2023-02-28T01:56:52;0.80;99.90
25024;DHT22;13033;50.936;5.334;2023-02-28T01:59:29;0.80;99.90
25024;DHT22;13033;50.936;5.334;2023-02-28T02:01:57;0.80;99.90
25024;DHT22;13033;50.936;5.334;2023-02-28T02:04:26;0.80;99.90
25024;DHT22;13033;50.936;5.334;2023-02-28T02:06:52;0.70;99.90
25024;DHT22;13033;50.936;5.334;2023-02-28T02:09:18;0.70;99.90
25024;DHT22;13033;50.936;5.334;2023-02-28T02:11:44;0.80;99.90
25024;DHT22;13033;50.936;5.334;2023-02-28T02:36:32;0.50;99.90
25024;DHT22;13033;50.936;5.334;2023-02-28T02:41:33;0.60;99.90
25024;DHT22;13033;50.936;5.334;2023-02-28T02:46:45;0.50;99.90
25024;DHT22;13033;50.936;5.334;2023-02-28T02:49:17;0.50;99.90
25024;DHT22;13033;50.936;5.334;2023-02-28T02:51:47;0.50;99.90
25024;DHT22;13033;50.936;5.334;2023-02-28T02:54:23;0.50;99.90
25024;DHT22;13033;50.936;5.334;2023-02-28T02:56:53;0.40;99.90
25024;DHT22;13033;50.936;5.334;2023-02-28T02:59:21;0.40;99.90
25024;DHT22;13033;50.936;5.334;2023-02-28T03:01:52;0.50;99.90
25024;DHT22;13033;50.936;5.334;2023-02-28T03:04:23;0.40;99.90
25024;DHT22;13033;50.936;5.334;2023-02-28T03:06:52;0.50;99.90
25024;DHT22;13033;50.936;5.334;2023-02-28T03:09:24;0.40;99.90
25024;DHT22;13033;50.936;5.334;2023-02-28T03:11:55;0.40;99.90
25024;DHT22;13033;50.936;5.334;2023-02-28T03:15:45;0.50;99.90
25024;DHT22;13033;50.936;5.334;2023-02-28T03:23:23;0.40;99.90
25024;DHT22;13033;50.936;5.334;2023-02-28T03:26:00;0.30;99.90
25024;DHT22;13033;50.936;5.334;2023-02-28T03:31:38;0.30;99.90
25024;DHT22;13033;50.936;5.334;2023-02-28T03:34:19;0.30;99.90
25024;DHT22;13033;50.936;5.334;2023-02-28T03:36:53;0.50;99.90
25024;DHT22;13033;50.936;5.334;2023-02-28T03:39:25;0.50;99.90
25024;DHT22;13033;50.936;5.334;2023-02-28T03:41:59;0.30;99.90
25024;DHT22;13033;50.936;5.334;2023-02-28T03:44:30;0.30;99.90
25024;DHT22;13033;50.936;5.334;2023-02-28T03:47:01;0.30;99.90
25024;DHT22;13033;50.936;5.334;2023-02-28T03:49:50;0.30;99.90
25024;DHT22;13033;50.936;5.334;2023-02-28T03:52:20;0.30;99.90
25024;DHT22;13033;50.936;5.334;2023-02-28T03:54:53;0.30;99.90
25024;DHT22;13033;50.936;5.334;2023-02-28T03:59:59;0.40;99.90
25024;DHT22;13033;50.936;5.334;2023-02-28T04:02:29;0.60;99.90
25024;DHT22;13033;50.936;5.334;2023-02-28T04:04:55;0.60;99.90
25024;DHT22;13033;50.936;5.334;2023-02-28T04:07:21;0.50;99.90
25024;DHT22;13033;50.936;5.334;2023-02-28T04:09:46;0.50;99.90
25024;DHT22;13033;50.936;5.334;2023-02-28T04:12:12;0.40;99.90
25024;DHT22;13033;50.936;5.334;2023-02-28T04:14:38;0.50;99.90
25024;DHT22;13033;50.936;5.334;2023-02-28T04:17:04;0.50;99.90
25024;DHT22;13033;50.936;5.334;2023-02-28T04:19:29;0.50;99.90
25024;DHT22;13033;50.936;5.334;2023-02-28T04:21:55;0.30;99.90
25024;DHT22;13033;50.936;5.334;2023-02-28T04:24:26;0.30;99.90
25024;DHT22;13033;50.936;5.334;2023-02-28T04:26:55;0.20;99.90
25024;DHT22;13033;50.936;5.334;2023-02-28T04:29:24;0.20;99.90
25024;DHT22;13033;50.936;5.334;2023-02-28T04:31:49;0.20;99.90
25024;DHT22;13033;50.936;5.334;2023-02-28T04:34:16;0.30;99.90
25024;DHT22;13033;50.936;5.334;2023-02-28T04:36:42;0.30;99.90
25024;DHT22;13033;50.936;5.334;2023-02-28T04:39:08;0.30;99.90
25024;DHT22;13033;50.936;5.334;2023-02-28T04:41:35;0.30;99.90
25024;DHT22;13033;50.936;5.334;2023-02-28T04:44:00;0.30;99.90
25024;DHT22;13033;50.936;5.334;2023-02-28T04:46:26;0.20;99.90
25024;DHT22;13033;50.936;5.334;2023-02-28T04:48:52;0.20;99.90
25024;DHT22;13033;50.936;5.334;2023-02-28T04:51:19;0.10;99.90
25024;DHT22;13033;50.936;5.334;2023-02-28T04:53:45;0.10;99.90
25024;DHT22;13033;50.936;5.334;2023-02-28T04:56:15;0.00;99.90
25024;DHT22;13033;50.936;5.334;2023-02-28T04:58:42;0.00;99.90
25024;DHT22;13033;50.936;5.334;2023-02-28T05:03:49;0.10;99.90
25024;DHT22;13033;50.936;5.334;2023-02-28T05:06:15;-0.10;99.90
25024;DHT22;13033;50.936;5.334;2023-02-28T05:08:41;0.00;99.90
25024;DHT22;13033;50.936;5.334;2023-02-28T05:11:22;0.00;99.90
25024;DHT22;13033;50.936;5.334;2023-02-28T05:13:51;0.00;99.90
25024;DHT22;13033;50.936;5.334;2023-02-28T05:16:18;-0.10;99.90
25024;DHT22;13033;50.936;5.334;2023-02-28T05:18:44;-0.10;99.90
25024;DHT22;13033;50.936;5.334;2023-02-28T05:21:23;-0.20;99.90
25024;DHT22;13033;50.936;5.334;2023-02-28T05:23:52;-0.10;99.90
25024;DHT22;13033;50.936;5.334;2023-02-28T05:26:18;-0.20;99.90
25024;DHT22;13033;50.936;5.334;2023-02-28T05:28:44;-0.30;99.90
25024;DHT22;13033;50.936;5.334;2023-02-28T05:31:13;-0.30;99.90
25024;DHT22;13033;50.936;5.334;2023-02-28T05:33:39;-0.40;99.90
25024;DHT22;13033;50.936;5.334;2023-02-28T05:36:05;-0.30;99.90
25024;DHT22;13033;50.936;5.334;2023-02-28T05:38:31;-0.40;99.90
25024;DHT22;13033;50.936;5.334;2023-02-28T05:40:57;-0.40;99.90
25024;DHT22;13033;50.936;5.334;2023-02-28T05:43:23;-0.30;99.90
25024;DHT22;13033;50.936;5.334;2023-02-28T05:45:49;-0.30;99.90
25024;DHT22;13033;50.936;5.334;2023-02-28T05:48:14;-0.20;99.90
25024;DHT22;13033;50.936;5.334;2023-02-28T05:50:40;-0.40;99.90
25024;DHT22;13033;50.936;5.334;2023-02-28T05:53:08;-0.40;99.90
25024;DHT22;13033;50.936;5.334;2023-02-28T05:55:33;-0.30;99.90
25024;DHT22;13033;50.936;5.334;2023-02-28T05:58:01;-0.40;99.90
25024;DHT22;13033;50.936;5.334;2023-02-28T06:00:28;-0.40;99.90
25024;DHT22;13033;50.936;5.334;2023-02-28T06:02:54;-0.40;99.90
25024;DHT22;13033;50.936;5.334;2023-02-28T06:05:23;-0.50;99.90
25024;DHT22;13033;50.936;5.334;2023-02-28T06:07:49;-0.50;99.90
25024;DHT22;13033;50.936;5.334;2023-02-28T06:10:15;-0.50;99.90
25024;DHT22;13033;50.936;5.334;2023-02-28T06:12:41;-0.50;99.90
25024;DHT22;13033;50.936;5.334;2023-02-28T06:15:16;-0.50;99.90
25024;DHT22;13033;50.936;5.334;2023-02-28T06:17:43;-0.50;99.90
25024;DHT22;13033;50.936;5.334;2023-02-28T06:20:11;-0.70;99.90
25024;DHT22;13033;50.936;5.334;2023-02-28T06:22:38;-0.60;99.90
25024;DHT22;13033;50.936;5.334;2023-02-28T06:25:05;-0.60;99.90
25024;DHT22;13033;50.936;5.334;2023-02-28T06:27:32;-0.60;99.90
25024;DHT22;13033;50.936;5.334;2023-02-28T06:29:58;-0.60;99.90
25024;DHT22;13033;50.936;5.334;2023-02-28T06:32:23;-0.50;99.90
25024;DHT22;13033;50.936;5.334;2023-02-28T06:34:49;-0.50;99.90
25024;DHT22;13033;50.936;5.334;2023-02-28T06:37:16;-0.40;99.90
25024;DHT22;13033;50.936;5.334;2023-02-28T06:39:42;-0.40;99.90
25024;DHT22;13033;50.936;5.334;2023-02-28T06:42:08;-0.50;99.90
25024;DHT22;13033;50.936;5.334;2023-02-28T06:44:34;-0.40;99.90
25024;DHT22;13033;50.936;5.334;2023-02-28T06:47:04;-0.40;99.90
25024;DHT22;13033;50.936;5.334;2023-02-28T06:49:32;-0.30;99.90
25024;DHT22;13033;50.936;5.334;2023-02-28T06:51:58;-0.30;99.90
25024;DHT22;13033;50.936;5.334;2023-02-28T06:54:24;-0.30;99.90
25024;DHT22;13033;50.936;5.334;2023-02-28T06:56:49;-0.40;99.90
25024;DHT22;13033;50.936;5.334;2023-02-28T06:59:16;-0.30;99.90
25024;DHT22;13033;50.936;5.334;2023-02-28T07:01:42;-0.30;99.90
25024;DHT22;13033;50.936;5.334;2023-02-28T07:04:08;-0.20;99.90
25024;DHT22;13033;50.936;5.334;2023-02-28T07:06:34;-0.30;99.90
25024;DHT22;13033;50.936;5.334;2023-02-28T07:08:59;-0.20;99.90
25024;DHT22;13033;50.936;5.334;2023-02-28T07:11:27;-0.20;99.90
25024;DHT22;13033;50.936;5.334;2023-02-28T07:13:54;-0.10;99.90
25024;DHT22;13033;50.936;5.334;2023-02-28T07:16:21;-0.20;99.90
25024;DHT22;13033;50.936;5.334;2023-02-28T07:18:48;-0.10;99.90
25024;DHT22;13033;50.936;5.334;2023-02-28T07:21:14;0.00;99.90
25024;DHT22;13033;50.936;5.334;2023-02-28T07:23:40;0.20;99.90
25024;DHT22;13033;50.936;5.334;2023-02-28T07:26:10;0.20;99.90
25024;DHT22;13033;50.936;5.334;2023-02-28T07:28:36;0.10;99.90
25024;DHT22;13033;50.936;5.334;2023-02-28T07:31:06;0.30;99.90
25024;DHT22;13033;50.936;5.334;2023-02-28T07:33:32;0.30;99.90
25024;DHT22;13033;50.936;5.334;2023-02-28T07:36:04;0.40;99.90
25024;DHT22;13033;50.936;5.334;2023-02-28T07:38:33;0.30;99.90
25024;DHT22;13033;50.936;5.334;2023-02-28T07:40:59;0.20;99.90
25024;DHT22;13033;50.936;5.334;2023-02-28T07:43:25;0.30;99.90
25024;DHT22;13033;50.936;5.334;2023-02-28T07:45:50;0.30;99.90
25024;DHT22;13033;50.936;5.334;2023-02-28T07:48:16;0.40;99.90
25024;DHT22;13033;50.936;5.334;2023-02-28T07:50:41;0.50;99.90
25024;DHT22;13033;50.936;5.334;2023-02-28T07:53:07;0.60;99.90
25024;DHT22;13033;50.936;5.334;2023-02-28T07:55:33;0.70;99.90
25024;DHT22;13033;50.936;5.334;2023-02-28T07:57:59;0.50;99.90
25024;DHT22;13033;50.936;5.334;2023-02-28T08:00:25;0.60;99.90
25024;DHT22;13033;50.936;5.334;2023-02-28T08:02:50;0.70;99.90
25024;DHT22;13033;50.936;5.334;2023-02-28T08:05:16;0.80;99.90
25024;DHT22;13033;50.936;5.334;2023-02-28T08:07:42;0.90;99.90
25024;DHT22;13033;50.936;5.334;2023-02-28T08:10:08;1.00;99.90
25024;DHT22;13033;50.936;5.334;2023-02-28T08:12:35;1.10;99.90
25024;DHT22;13033;50.936;5.334;2023-02-28T08:15:02;1.10;99.90
25024;DHT22;13033;50.936;5.334;2023-02-28T08:17:28;1.10;99.90
25024;DHT22;13033;50.936;5.334;2023-02-28T08:19:54;1.20;99.90
25024;DHT22;13033;50.936;5.334;2023-02-28T08:22:20;1.30;99.90
25024;DHT22;13033;50.936;5.334;2023-02-28T08:24:46;1.40;99.90
25024;DHT22;13033;50.936;5.334;2023-02-28T08:27:11;1.50;99.90
25024;DHT22;13033;50.936;5.334;2023-02-28T08:29:38;1.70;99.90
25024;DHT22;13033;50.936;5.334;2023-02-28T08:32:05;1.90;99.90
25024;DHT22;13033;50.936;5.334;2023-02-28T08:34:31;2.00;99.90
25024;DHT22;13033;50.936;5.334;2023-02-28T08:36:57;2.00;99.90
25024;DHT22;13033;50.936;5.334;2023-02-28T08:39:23;2.10;99.90
25024;DHT22;13033;50.936;5.334;2023-02-28T08:41:48;2.20;99.90
25024;DHT22;13033;50.936;5.334;2023-02-28T08:44:14;2.30;99.90
25024;DHT22;13033;50.936;5.334;2023-02-28T08:46:40;2.40;99.90
25024;DHT22;13033;50.936;5.334;2023-02-28T08:49:05;2.40;99.90
25024;DHT22;13033;50.936;5.334;2023-02-28T08:51:32;2.40;99.90
25024;DHT22;13033;50.936;5.334;2023-02-28T08:53:59;2.60;99.90
25024;DHT22;13033;50.936;5.334;2023-02-28T08:56:26;2.80;99.90
25024;DHT22;13033;50.936;5.334;2023-02-28T08:58:55;2.90;99.90
25024;DHT22;13033;50.936;5.334;2023-02-28T09:01:23;3.10;99.90
25024;DHT22;13033;50.936;5.334;2023-02-28T09:03:50;3.10;99.90
25024;DHT22;13033;50.936;5.334;2023-02-28T09:06:18;3.10;99.90
25024;DHT22;13033;50.936;5.334;2023-02-28T09:08:44;3.20;99.90
25024;DHT22;13033;50.936;5.334;2023-02-28T09:11:10;3.40;99.90
25024;DHT22;13033;50.936;5.334;2023-02-28T09:13:37;3.40;99.90
25024;DHT22;13033;50.936;5.334;2023-02-28T09:16:04;3.60;99.90
25024;DHT22;13033;50.936;5.334;2023-02-28T09:18:30;3.80;99.90
25024;DHT22;13033;50.936;5.334;2023-02-28T09:20:56;3.80;99.90
25024;DHT22;13033;50.936;5.334;2023-02-28T09:23:23;4.00;99.90
25024;DHT22;13033;50.936;5.334;2023-02-28T09:25:51;4.10;99.90
25024;DHT22;13033;50.936;5.334;2023-02-28T09:28:18;4.30;99.90
25024;DHT22;13033;50.936;5.334;2023-02-28T09:30:45;4.40;99.90
25024;DHT22;13033;50.936;5.334;2023-02-28T09:33:12;4.30;99.90
25024;DHT22;13033;50.936;5.334;2023-02-28T09:35:38;4.30;99.90
25024;DHT22;13033;50.936;5.334;2023-02-28T09:38:04;4.20;99.90
25024;DHT22;13033;50.936;5.334;2023-02-28T09:40:31;4.40;99.90
25024;DHT22;13033;50.936;5.334;2023-02-28T09:42:57;4.60;99.90
25024;DHT22;13033;50.936;5.334;2023-02-28T09:47:57;4.80;99.90
25024;DHT22;13033;50.936;5.334;2023-02-28T09:50:40;4.70;99.90
25024;DHT22;13033;50.936;5.334;2023-02-28T09:53:27;4.70;99.90
25024;DHT22;13033;50.936;5.334;2023-02-28T09:56:01;4.60;99.90
25024;DHT22;13033;50.936;5.334;2023-02-28T09:58:30;4.60;99.90
25024;DHT22;13033;50.936;5.334;2023-02-28T10:01:29;4.80;99.90
25024;DHT22;13033;50.936;5.334;2023-02-28T10:04:00;4.80;99.90
25024;DHT22;13033;50.936;5.334;2023-02-28T10:06:52;4.80;99.90
25024;DHT22;13033;50.936;5.334;2023-02-28T10:09:26;4.90;99.90
25024;DHT22;13033;50.936;5.334;2023-02-28T10:11:55;5.10;99.50
25024;DHT22;13033;50.936;5.334;2023-02-28T10:14:27;5.10;97.70
25024;DHT22;13033;50.936;5.334;2023-02-28T10:17:04;5.10;97.30
25024;DHT22;13033;50.936;5.334;2023-02-28T10:23:09;5.20;97.20
25024;DHT22;13033;50.936;5.334;2023-02-28T10:25:33;5.20;97.30
25024;DHT22;13033;50.936;5.334;2023-02-28T10:28:08;5.20;97.50
25024;DHT22;13033;50.936;5.334;2023-02-28T10:30:36;5.30;97.40
25024;DHT22;13033;50.936;5.334;2023-02-28T10:33:04;5.30;95.50
25024;DHT22;13033;50.936;5.334;2023-02-28T10:35:30;5.10;95.20
25024;DHT22;13033;50.936;5.334;2023-02-28T10:37:58;5.20;94.60
25024;DHT22;13033;50.936;5.334;2023-02-28T10:40:29;5.20;95.00
25024;DHT22;13033;50.936;5.334;2023-02-28T10:45:22;5.10;93.10
25024;DHT22;13033;50.936;5.334;2023-02-28T10:48:01;4.90;93.80
25024;DHT22;13033;50.936;5.334;2023-02-28T10:50:44;4.90;94.00
25024;DHT22;13033;50.936;5.334;2023-02-28T10:55:36;4.90;94.20
25024;DHT22;13033;50.936;5.334;2023-02-28T10:58:02;5.00;94.10
25024;DHT22;13033;50.936;5.334;2023-02-28T11:00:34;5.10;92.90
25024;DHT22;13033;50.936;5.334;2023-02-28T11:03:00;5.10;91.70
25024;DHT22;13033;50.936;5.334;2023-02-28T11:05:35;5.10;90.50
25024;DHT22;13033;50.936;5.334;2023-02-28T11:08:16;5.20;90.50
25024;DHT22;13033;50.936;5.334;2023-02-28T11:10:57;5.20;90.30
25024;DHT22;13033;50.936;5.334;2023-02-28T11:13:33;5.30;90.10
25024;DHT22;13033;50.936;5.334;2023-02-28T11:16:02;5.20;90.20
25024;DHT22;13033;50.936;5.334;2023-02-28T11:18:48;5.30;90.90
25024;DHT22;13033;50.936;5.334;2023-02-28T11:21:27;5.50;89.60
25024;DHT22;13033;50.936;5.334;2023-02-28T11:24:03;5.60;88.40
25024;DHT22;13033;50.936;5.334;2023-02-28T11:26:47;5.60;87.90
25024;DHT22;13033;50.936;5.334;2023-02-28T11:32:16;5.60;86.90
25024;DHT22;13033;50.936;5.334;2023-02-28T11:34:44;5.60;86.00
25024;DHT22;13033;50.936;5.334;2023-02-28T11:37:16;5.70;86.70
25024;DHT22;13033;50.936;5.334;2023-02-28T11:39:44;5.80;86.30
25024;DHT22;13033;50.936;5.334;2023-02-28T11:45:17;6.10;81.90
25024;DHT22;13033;50.936;5.334;2023-02-28T11:47:52;6.10;82.60
25024;DHT22;13033;50.936;5.334;2023-02-28T11:56:09;6.40;80.70
25024;DHT22;13033;50.936;5.334;2023-02-28T11:58:40;6.60;80.60
25024;DHT22;13033;50.936;5.334;2023-02-28T12:06:40;6.10;81.60
25024;DHT22;13033;50.936;5.334;2023-02-28T12:09:44;6.00;82.20
25024;DHT22;13033;50.936;5.334;2023-02-28T12:15:19;6.20;80.50
25024;DHT22;13033;50.936;5.334;2023-02-28T12:20:49;6.20;80.60
25024;DHT22;13033;50.936;5.334;2023-02-28T12:28:48;6.20;81.00
25024;DHT22;13033;50.936;5.334;2023-02-28T12:31:24;6.20;80.00
25024;DHT22;13033;50.936;5.334;2023-02-28T12:33:55;6.40;80.00
25024;DHT22;13033;50.936;5.334;2023-02-28T12:36:22;6.50;79.70
25024;DHT22;13033;50.936;5.334;2023-02-28T12:39:08;6.60;79.50
25024;DHT22;13033;50.936;5.334;2023-02-28T12:41:56;6.60;79.10
25024;DHT22;13033;50.936;5.334;2023-02-28T12:44:44;6.50;80.10
25024;DHT22;13033;50.936;5.334;2023-02-28T12:47:16;6.40;80.00
25024;DHT22;13033;50.936;5.334;2023-02-28T12:49:53;6.30;81.20
25024;DHT22;13033;50.936;5.334;2023-02-28T12:55:15;6.30;80.30
25024;DHT22;13033;50.936;5.334;2023-02-28T12:58:05;6.20;79.80
25024;DHT22;13033;50.936;5.334;2023-02-28T13:00:38;6.00;79.80
25024;DHT22;13033;50.936;5.334;2023-02-28T13:08:27;6.00;80.30
25024;DHT22;13033;50.936;5.334;2023-02-28T13:10:59;6.00;79.70
25024;DHT22;13033;50.936;5.334;2023-02-28T13:13:27;5.90;81.70
25024;DHT22;13033;50.936;5.334;2023-02-28T13:18:44;6.30;80.20
25024;DHT22;13033;50.936;5.334;2023-02-28T13:21:32;6.40;80.20
25024;DHT22;13033;50.936;5.334;2023-02-28T13:24:09;6.50;79.70
25024;DHT22;13033;50.936;5.334;2023-02-28T13:39:58;6.60;79.80
25024;DHT22;13033;50.936;5.334;2023-02-28T13:47:39;6.50;81.40
25024;DHT22;13033;50.936;5.334;2023-02-28T13:56:26;6.60;81.30
25024;DHT22;13033;50.936;5.334;2023-02-28T13:58:41;6.60;80.90
25024;DHT22;13033;50.936;5.334;2023-02-28T14:06:55;6.40;81.60
25024;DHT22;13033;50.936;5.334;2023-02-28T14:09:29;6.40;82.40
25024;DHT22;13033;50.936;5.334;2023-02-28T14:11:56;6.30;82.70
25024;DHT22;13033;50.936;5.334;2023-02-28T14:17:08;6.30;84.70
25024;DHT22;13033;50.936;5.334;2023-02-28T14:19:38;6.20;84.80
25024;DHT22;13033;50.936;5.334;2023-02-28T14:25:18;6.30;85.60
25024;DHT22;13033;50.936;5.334;2023-02-28T14:27:48;6.40;86.30
25024;DHT22;13033;50.936;5.334;2023-02-28T14:33:27;6.10;86.50
25024;DHT22;13033;50.936;5.334;2023-02-28T14:36:08;6.20;86.90
25024;DHT22;13033;50.936;5.334;2023-02-28T14:38:46;6.40;85.90
25024;DHT22;13033;50.936;5.334;2023-02-28T14:41:23;6.40;86.20
25024;DHT22;13033;50.936;5.334;2023-02-28T14:43:54;6.60;85.30
25024;DHT22;13033;50.936;5.334;2023-02-28T14:46:23;6.60;85.40
25024;DHT22;13033;50.936;5.334;2023-02-28T14:48:51;6.50;85.00
25024;DHT22;13033;50.936;5.334;2023-02-28T14:51:23;6.40;85.70
25024;DHT22;13033;50.936;5.334;2023-02-28T14:53:52;6.40;86.20
25024;DHT22;13033;50.936;5.334;2023-02-28T14:56:41;6.40;86.50
25024;DHT22;13033;50.936;5.334;2023-02-28T14:59:25;6.30;86.40
25024;DHT22;13033;50.936;5.334;2023-02-28T15:01:51;6.30;87.10
25024;DHT22;13033;50.936;5.334;2023-02-28T15:04:26;6.50;85.30
25024;DHT22;13033;50.936;5.334;2023-02-28T15:07:10;6.50;84.80
25024;DHT22;13033;50.936;5.334;2023-02-28T15:09:36;7.00;82.80
25024;DHT22;13033;50.936;5.334;2023-02-28T15:12:02;7.70;81.30
25024;DHT22;13033;50.936;5.334;2023-02-28T15:14:28;8.40;78.50
25024;DHT22;13033;50.936;5.334;2023-02-28T15:17:04;8.80;76.60
25024;DHT22;13033;50.936;5.334;2023-02-28T15:19:36;9.80;74.70
25024;DHT22;13033;50.936;5.334;2023-02-28T15:22:11;9.80;72.90
25024;DHT22;13033;50.936;5.334;2023-02-28T15:24:44;10.20;72.10
25024;DHT22;13033;50.936;5.334;2023-02-28T15:27:20;10.20;71.20
25024;DHT22;13033;50.936;5.334;2023-02-28T15:29:53;10.40;71.00
25024;DHT22;13033;50.936;5.334;2023-02-28T15:34:50;10.80;67.70
25024;DHT22;13033;50.936;5.334;2023-02-28T15:42:40;11.10;65.90
25024;DHT22;13033;50.936;5.334;2023-02-28T15:45:33;10.80;65.80
25024;DHT22;13033;50.936;5.334;2023-02-28T15:48:02;11.40;64.90
25024;DHT22;13033;50.936;5.334;2023-02-28T15:50:29;12.00;62.40
25024;DHT22;13033;50.936;5.334;2023-02-28T15:52:55;12.20;61.80
25024;DHT22;13033;50.936;5.334;2023-02-28T15:55:27;12.00;61.50
25024;DHT22;13033;50.936;5.334;2023-02-28T15:57:56;12.10;61.00
25024;DHT22;13033;50.936;5.334;2023-02-28T16:00:26;11.40;61.70
25024;DHT22;13033;50.936;5.334;2023-02-28T16:02:52;11.50;62.20
25024;DHT22;13033;50.936;5.334;2023-02-28T16:07:54;11.00;62.80
25024;DHT22;13033;50.936;5.334;2023-02-28T16:10:21;11.10;62.60
25024;DHT22;13033;50.936;5.334;2023-02-28T16:12:52;11.10;63.00
25024;DHT22;13033;50.936;5.334;2023-02-28T16:15:24;10.60;63.80
25024;DHT22;13033;50.936;5.334;2023-02-28T16:17:52;10.70;64.10
25024;DHT22;13033;50.936;5.334;2023-02-28T16:20:21;11.00;63.30
25024;DHT22;13033;50.936;5.334;2023-02-28T16:22:47;10.60;63.50
25024;DHT22;13033;50.936;5.334;2023-02-28T16:25:15;10.40;64.30
25024;DHT22;13033;50.936;5.334;2023-02-28T16:27:43;10.20;64.10
25024;DHT22;13033;50.936;5.334;2023-02-28T16:30:25;10.30;64.60
25024;DHT22;13033;50.936;5.334;2023-02-28T16:32:54;9.60;64.90
25024;DHT22;13033;50.936;5.334;2023-02-28T16:35:20;8.20;68.90
25024;DHT22;13033;50.936;5.334;2023-02-28T16:37:46;7.70;71.20
25024;DHT22;13033;50.936;5.334;2023-02-28T16:40:23;7.10;72.60
25024;DHT22;13033;50.936;5.334;2023-02-28T16:42:54;6.70;75.00
25024;DHT22;13033;50.936;5.334;2023-02-28T16:45:23;6.30;76.80
25024;DHT22;13033;50.936;5.334;2023-02-28T16:47:50;6.20;77.30
25024;DHT22;13033;50.936;5.334;2023-02-28T16:50:21;5.90;78.60
25024;DHT22;13033;50.936;5.334;2023-02-28T16:52:47;5.80;79.80
25024;DHT22;13033;50.936;5.334;2023-02-28T16:55:13;5.80;80.50
25024;DHT22;13033;50.936;5.334;2023-02-28T16:57:39;5.70;81.10
25024;DHT22;13033;50.936;5.334;2023-02-28T17:00:07;5.50;81.70
25024;DHT22;13033;50.936;5.334;2023-02-28T17:02:34;5.50;82.40
25024;DHT22;13033;50.936;5.334;2023-02-28T17:05:00;5.60;83.00
25024;DHT22;13033;50.936;5.334;2023-02-28T17:07:25;5.60;83.40
25024;DHT22;13033;50.936;5.334;2023-02-28T17:09:51;5.60;83.40
25024;DHT22;13033;50.936;5.334;2023-02-28T17:12:17;5.50;83.90
25024;DHT22;13033;50.936;5.334;2023-02-28T17:14:44;5.50;84.50
25024;DHT22;13033;50.936;5.334;2023-02-28T17:17:18;5.40;85.20
25024;DHT22;13033;50.936;5.334;2023-02-28T17:19:45;5.40;86.10
25024;DHT22;13033;50.936;5.334;2023-02-28T17:22:11;5.30;86.50
25024;DHT22;13033;50.936;5.334;2023-02-28T17:24:36;5.30;87.40
25024;DHT22;13033;50.936;5.334;2023-02-28T17:27:03;5.20;88.00
25024;DHT22;13033;50.936;5.334;2023-02-28T17:29:29;5.10;88.60
25024;DHT22;13033;50.936;5.334;2023-02-28T17:31:55;5.10;89.30
25024;DHT22;13033;50.936;5.334;2023-02-28T17:34:21;5.00;89.80
25024;DHT22;13033;50.936;5.334;2023-02-28T17:36:49;4.90;90.40
25024;DHT22;13033;50.936;5.334;2023-02-28T17:39:16;4.80;90.70
25024;DHT22;13033;50.936;5.334;2023-02-28T17:41:46;4.90;90.80
25024;DHT22;13033;50.936;5.334;2023-02-28T17:44:12;4.80;91.10
25024;DHT22;13033;50.936;5.334;2023-02-28T17:46:38;4.70;91.40
25024;DHT22;13033;50.936;5.334;2023-02-28T17:49:05;4.80;91.70
25024;DHT22;13033;50.936;5.334;2023-02-28T17:51:30;4.70;92.00
25024;DHT22;13033;50.936;5.334;2023-02-28T17:53:56;4.70;92.10
25024;DHT22;13033;50.936;5.334;2023-02-28T17:56:24;4.70;92.00
25024;DHT22;13033;50.936;5.334;2023-02-28T17:58:52;4.60;92.40
25024;DHT22;13033;50.936;5.334;2023-02-28T18:01:18;4.50;92.80
25024;DHT22;13033;50.936;5.334;2023-02-28T18:03:46;4.50;93.30
25024;DHT22;13033;50.936;5.334;2023-02-28T18:06:35;4.50;93.60
25024;DHT22;13033;50.936;5.334;2023-02-28T18:09:02;4.40;94.00
25024;DHT22;13033;50.936;5.334;2023-02-28T18:11:28;4.40;94.50
25024;DHT22;13033;50.936;5.334;2023-02-28T18:14:06;4.30;94.80
25024;DHT22;13033;50.936;5.334;2023-02-28T18:16:32;4.30;95.20
25024;DHT22;13033;50.936;5.334;2023-02-28T18:18:58;4.30;95.40